sensor_id;sensor_type;location;lat;lon;timestamp;temperature;humidity
7494;DHT22;3788;49.902;8.590;2022-07-29T00:01:48;22.30;53.90
7494;DHT22;3788;49.902;8.590;2022-07-29T00:04:16;22.20;53.90
7494;DHT22;3788;49.902;8.590;2022-07-29T00:06:42;22.10;54.00
7494;DHT22;3788;49.902;8.590;2022-07-29T00:09:09;22.10;54.20
7494;DHT22;3788;49.902;8.590;2022-07-29T00:11:36;22.00;54.40
7494;DHT22;3788;49.902;8.590;2022-07-29T00:14:03;22.00;54.50
7494;DHT22;3788;49.902;8.590;2022-07-29T00:16:29;22.00;54.70
7494;DHT22;3788;49.902;8.590;2022-07-29T00:18:56;22.00;54.70
7494;DHT22;3788;49.902;8.590;2022-07-29T00:21:24;22.00;54.70
7494;DHT22;3788;49.902;8.590;2022-07-29T00:23:51;22.00;54.70
7494;DHT22;3788;49.902;8.590;2022-07-29T00:26:18;21.90;54.60
7494;DHT22;3788;49.902;8.590;2022-07-29T00:28:45;21.90;54.80
7494;DHT22;3788;49.902;8.590;2022-07-29T00:31:12;21.90;54.90
7494;DHT22;3788;49.902;8.590;2022-07-29T00:33:38;21.80;54.80
7494;DHT22;3788;49.902;8.590;2022-07-29T00:36:06;21.80;54.70
7494;DHT22;3788;49.902;8.590;2022-07-29T00:38:33;21.80;54.80
7494;DHT22;3788;49.902;8.590;2022-07-29T00:41:00;21.70;54.80
7494;DHT22;3788;49.902;8.590;2022-07-29T00:43:26;21.70;55.00
7494;DHT22;3788;49.902;8.590;2022-07-29T00:45:53;21.60;55.00
7494;DHT22;3788;49.902;8.590;2022-07-29T00:48:20;21.60;55.00
7494;DHT22;3788;49.902;8.590;2022-07-29T00:50:46;21.60;55.10
7494;DHT22;3788;49.902;8.590;2022-07-29T00:53:15;21.60;55.00
7494;DHT22;3788;49.902;8.590;2022-07-29T00:55:43;21.50;54.70
7494;DHT22;3788;49.902;8.590;2022-07-29T00:58:11;21.50;54.60
7494;DHT22;3788;49.902;8.590;2022-07-29T01:00:38;21.50;54.30
7494;DHT22;3788;49.902;8.590;2022-07-29T01:03:06;21.50;54.20
7494;DHT22;3788;49.902;8.590;2022-07-29T01:05:34;21.50;54.00
7494;DHT22;3788;49.902;8.590;2022-07-29T01:08:02;21.50;53.80
7494;DHT22;3788;49.902;8.590;2022-07-29T01:10:30;21.60;53.80
7494;DHT22;3788;49.902;8.590;2022-07-29T01:12:59;21.60;53.80
7494;DHT22;3788;49.902;8.590;2022-07-29T01:15:27;21.50;53.60
7494;DHT22;3788;49.902;8.590;2022-07-29T01:18:00;21.50;53.50
7494;DHT22;3788;49.902;8.590;2022-07-29T01:20:34;21.50;53.60
7494;DHT22;3788;49.902;8.590;2022-07-29T01:23:19;21.50;53.80
7494;DHT22;3788;49.902;8.590;2022-07-29T01:26:00;21.50;54.50
7494;DHT22;3788;49.902;8.590;2022-07-29T01:29:00;21.40;53.70
7494;DHT22;3788;49.902;8.590;2022-07-29T01:31:33;21.40;53.70
7494;DHT22;3788;49.902;8.590;2022-07-29T01:34:03;21.30;53.60
7494;DHT22;3788;49.902;8.590;2022-07-29T01:36:35;21.30;53.60
7494;DHT22;3788;49.902;8.590;2022-07-29T01:39:06;21.30;53.70
7494;DHT22;3788;49.902;8.590;2022-07-29T01:41:37;21.20;53.70
7494;DHT22;3788;49.902;8.590;2022-07-29T01:44:12;21.20;53.60
7494;DHT22;3788;49.902;8.590;2022-07-29T01:46:44;21.20;53.60
7494;DHT22;3788;49.902;8.590;2022-07-29T01:49:15;21.20;53.70
7494;DHT22;3788;49.902;8.590;2022-07-29T01:51:46;21.20;53.60
7494;DHT22;3788;49.902;8.590;2022-07-29T01:54:18;21.20;53.40
7494;DHT22;3788;49.902;8.590;2022-07-29T01:56:49;21.20;53.40
7494;DHT22;3788;49.902;8.590;2022-07-29T01:59:19;21.20;53.30
7494;DHT22;3788;49.902;8.590;2022-07-29T02:01:48;21.10;53.10
7494;DHT22;3788;49.902;8.590;2022-07-29T02:04:18;21.20;53.20
7494;DHT22;3788;49.902;8.590;2022-07-29T02:06:48;21.20;53.20
7494;DHT22;3788;49.902;8.590;2022-07-29T02:09:16;21.20;53.10
7494;DHT22;3788;49.902;8.590;2022-07-29T02:11:48;21.10;52.90
7494;DHT22;3788;49.902;8.590;2022-07-29T02:14:20;21.10;52.90
7494;DHT22;3788;49.902;8.590;2022-07-29T02:16:50;21.10;52.90
7494;DHT22;3788;49.902;8.590;2022-07-29T02:19:19;21.10;52.90
7494;DHT22;3788;49.902;8.590;2022-07-29T02:21:48;21.10;52.90
7494;DHT22;3788;49.902;8.590;2022-07-29T02:24:18;21.00;52.90
7494;DHT22;3788;49.902;8.590;2022-07-29T02:26:45;21.00;52.90
7494;DHT22;3788;49.902;8.590;2022-07-29T02:29:15;21.00;52.90
7494;DHT22;3788;49.902;8.590;2022-07-29T02:31:45;21.10;53.00
7494;DHT22;3788;49.902;8.590;2022-07-29T02:34:13;21.00;53.00
7494;DHT22;3788;49.902;8.590;2022-07-29T02:36:43;21.00;53.10
7494;DHT22;3788;49.902;8.590;2022-07-29T02:39:11;21.00;53.30
7494;DHT22;3788;49.902;8.590;2022-07-29T02:41:42;20.90;53.30
7494;DHT22;3788;49.902;8.590;2022-07-29T02:44:11;20.90;53.40
7494;DHT22;3788;49.902;8.590;2022-07-29T02:46:45;20.90;53.50
7494;DHT22;3788;49.902;8.590;2022-07-29T02:49:15;20.90;53.60
7494;DHT22;3788;49.902;8.590;2022-07-29T02:51:46;20.90;53.70
7494;DHT22;3788;49.902;8.590;2022-07-29T02:54:27;20.80;53.70
7494;DHT22;3788;49.902;8.590;2022-07-29T02:56:57;20.80;53.80
7494;DHT22;3788;49.902;8.590;2022-07-29T02:59:26;20.80;53.90
7494;DHT22;3788;49.902;8.590;2022-07-29T03:01:57;20.70;54.00
7494;DHT22;3788;49.902;8.590;2022-07-29T03:04:26;20.70;54.10
7494;DHT22;3788;49.902;8.590;2022-07-29T03:06:55;20.60;54.20
7494;DHT22;3788;49.902;8.590;2022-07-29T03:09:23;20.60;54.40
7494;DHT22;3788;49.902;8.590;2022-07-29T03:11:50;20.50;54.50
7494;DHT22;3788;49.902;8.590;2022-07-29T03:14:20;20.50;54.70
7494;DHT22;3788;49.902;8.590;2022-07-29T03:16:49;20.50;55.00
7494;DHT22;3788;49.902;8.590;2022-07-29T03:19:18;20.50;55.20
7494;DHT22;3788;49.902;8.590;2022-07-29T03:21:46;20.50;55.50
7494;DHT22;3788;49.902;8.590;2022-07-29T03:24:24;20.40;55.60
7494;DHT22;3788;49.902;8.590;2022-07-29T03:26:51;20.40;55.70
7494;DHT22;3788;49.902;8.590;2022-07-29T03:29:18;20.30;55.90
7494;DHT22;3788;49.902;8.590;2022-07-29T03:31:45;20.30;56.00
7494;DHT22;3788;49.902;8.590;2022-07-29T03:34:11;20.30;56.20
7494;DHT22;3788;49.902;8.590;2022-07-29T03:36:39;20.30;56.30
7494;DHT22;3788;49.902;8.590;2022-07-29T03:39:07;20.20;56.40
7494;DHT22;3788;49.902;8.590;2022-07-29T03:41:35;20.20;56.60
7494;DHT22;3788;49.902;8.590;2022-07-29T03:44:04;20.20;56.70
7494;DHT22;3788;49.902;8.590;2022-07-29T03:46:34;20.20;57.50
7494;DHT22;3788;49.902;8.590;2022-07-29T03:49:03;20.10;57.00
7494;DHT22;3788;49.902;8.590;2022-07-29T03:51:33;20.10;57.10
7494;DHT22;3788;49.902;8.590;2022-07-29T03:54:02;20.00;57.20
7494;DHT22;3788;49.902;8.590;2022-07-29T03:56:31;20.00;57.40
7494;DHT22;3788;49.902;8.590;2022-07-29T03:58:59;19.90;57.40
7494;DHT22;3788;49.902;8.590;2022-07-29T04:01:27;19.90;57.50
7494;DHT22;3788;49.902;8.590;2022-07-29T04:03:55;19.90;57.60
7494;DHT22;3788;49.902;8.590;2022-07-29T04:06:22;19.80;57.60
7494;DHT22;3788;49.902;8.590;2022-07-29T04:08:48;19.80;57.70
7494;DHT22;3788;49.902;8.590;2022-07-29T04:11:16;19.80;57.70
7494;DHT22;3788;49.902;8.590;2022-07-29T04:13:43;19.80;57.80
7494;DHT22;3788;49.902;8.590;2022-07-29T04:16:10;19.80;57.90
7494;DHT22;3788;49.902;8.590;2022-07-29T04:18:36;19.80;57.90
7494;DHT22;3788;49.902;8.590;2022-07-29T04:21:03;19.80;57.90
7494;DHT22;3788;49.902;8.590;2022-07-29T04:23:30;19.70;57.90
7494;DHT22;3788;49.902;8.590;2022-07-29T04:25:58;19.70;57.90
7494;DHT22;3788;49.902;8.590;2022-07-29T04:28:27;19.70;57.90
7494;DHT22;3788;49.902;8.590;2022-07-29T04:30:54;19.70;57.90
7494;DHT22;3788;49.902;8.590;2022-07-29T04:33:21;19.70;58.00
7494;DHT22;3788;49.902;8.590;2022-07-29T04:35:48;19.70;58.00
7494;DHT22;3788;49.902;8.590;2022-07-29T04:38:14;19.70;58.00
7494;DHT22;3788;49.902;8.590;2022-07-29T04:40:41;19.70;58.00
7494;DHT22;3788;49.902;8.590;2022-07-29T04:43:08;19.70;58.10
7494;DHT22;3788;49.902;8.590;2022-07-29T04:45:36;19.70;58.00
7494;DHT22;3788;49.902;8.590;2022-07-29T04:48:03;19.70;58.00
7494;DHT22;3788;49.902;8.590;2022-07-29T04:50:30;19.70;58.00
7494;DHT22;3788;49.902;8.590;2022-07-29T04:52:57;19.80;58.10
7494;DHT22;3788;49.902;8.590;2022-07-29T04:55:23;19.80;58.10
7494;DHT22;3788;49.902;8.590;2022-07-29T04:57:50;19.80;58.10
7494;DHT22;3788;49.902;8.590;2022-07-29T05:00:17;19.80;58.10
7494;DHT22;3788;49.902;8.590;2022-07-29T05:02:45;19.80;58.10
7494;DHT22;3788;49.902;8.590;2022-07-29T05:05:12;19.80;58.20
7494;DHT22;3788;49.902;8.590;2022-07-29T05:07:38;19.80;58.20
7494;DHT22;3788;49.902;8.590;2022-07-29T05:10:05;19.90;58.30
7494;DHT22;3788;49.902;8.590;2022-07-29T05:12:32;19.90;58.20
7494;DHT22;3788;49.902;8.590;2022-07-29T05:14:59;19.90;58.20
7494;DHT22;3788;49.902;8.590;2022-07-29T05:17:26;20.00;58.10
7494;DHT22;3788;49.902;8.590;2022-07-29T05:19:54;20.00;58.00
7494;DHT22;3788;49.902;8.590;2022-07-29T05:22:21;20.10;58.00
7494;DHT22;3788;49.902;8.590;2022-07-29T05:24:48;20.10;57.80
7494;DHT22;3788;49.902;8.590;2022-07-29T05:27:15;20.20;57.70
7494;DHT22;3788;49.902;8.590;2022-07-29T05:29:41;20.20;57.60
7494;DHT22;3788;49.902;8.590;2022-07-29T05:32:08;20.20;57.50
7494;DHT22;3788;49.902;8.590;2022-07-29T05:34:35;20.20;57.50
7494;DHT22;3788;49.902;8.590;2022-07-29T05:37:03;20.30;57.60
7494;DHT22;3788;49.902;8.590;2022-07-29T05:39:29;20.30;57.50
7494;DHT22;3788;49.902;8.590;2022-07-29T05:41:56;20.40;57.50
7494;DHT22;3788;49.902;8.590;2022-07-29T05:44:23;20.40;57.40
7494;DHT22;3788;49.902;8.590;2022-07-29T05:46:49;20.50;57.50
7494;DHT22;3788;49.902;8.590;2022-07-29T05:49:16;20.50;57.50
7494;DHT22;3788;49.902;8.590;2022-07-29T05:51:43;20.60;57.50
7494;DHT22;3788;49.902;8.590;2022-07-29T05:54:11;20.60;57.50
7494;DHT22;3788;49.902;8.590;2022-07-29T05:56:38;20.60;57.50
7494;DHT22;3788;49.902;8.590;2022-07-29T05:59:04;20.70;57.50
7494;DHT22;3788;49.902;8.590;2022-07-29T06:01:31;20.70;57.40
7494;DHT22;3788;49.902;8.590;2022-07-29T06:03:58;20.80;57.40
7494;DHT22;3788;49.902;8.590;2022-07-29T06:06:25;20.80;57.20
7494;DHT22;3788;49.902;8.590;2022-07-29T06:08:51;20.90;57.10
7494;DHT22;3788;49.902;8.590;2022-07-29T06:11:19;21.00;56.90
7494;DHT22;3788;49.902;8.590;2022-07-29T06:13:46;21.00;56.70
7494;DHT22;3788;49.902;8.590;2022-07-29T06:16:13;21.00;56.60
7494;DHT22;3788;49.902;8.590;2022-07-29T06:18:39;21.10;56.60
7494;DHT22;3788;49.902;8.590;2022-07-29T06:21:08;21.10;56.50
7494;DHT22;3788;49.902;8.590;2022-07-29T06:23:35;21.20;56.50
7494;DHT22;3788;49.902;8.590;2022-07-29T06:26:02;21.30;56.10
7494;DHT22;3788;49.902;8.590;2022-07-29T06:28:30;21.40;55.90
7494;DHT22;3788;49.902;8.590;2022-07-29T06:30:57;21.50;55.20
7494;DHT22;3788;49.902;8.590;2022-07-29T06:33:23;21.60;55.10
7494;DHT22;3788;49.902;8.590;2022-07-29T06:35:50;21.70;54.60
7494;DHT22;3788;49.902;8.590;2022-07-29T06:38:17;21.80;54.30
7494;DHT22;3788;49.902;8.590;2022-07-29T06:40:44;21.90;54.30
7494;DHT22;3788;49.902;8.590;2022-07-29T06:43:33;21.90;54.20
7494;DHT22;3788;49.902;8.590;2022-07-29T06:46:03;22.00;54.10
7494;DHT22;3788;49.902;8.590;2022-07-29T06:48:32;22.10;54.00
7494;DHT22;3788;49.902;8.590;2022-07-29T06:51:00;22.20;53.80
7494;DHT22;3788;49.902;8.590;2022-07-29T06:53:27;22.20;53.70
7494;DHT22;3788;49.902;8.590;2022-07-29T06:55:54;22.30;53.70
7494;DHT22;3788;49.902;8.590;2022-07-29T06:58:21;22.50;53.80
7494;DHT22;3788;49.902;8.590;2022-07-29T07:00:49;22.50;53.60
7494;DHT22;3788;49.902;8.590;2022-07-29T07:03:16;22.60;53.50
7494;DHT22;3788;49.902;8.590;2022-07-29T07:05:43;22.70;53.50
7494;DHT22;3788;49.902;8.590;2022-07-29T07:08:10;22.90;53.50
7494;DHT22;3788;49.902;8.590;2022-07-29T07:10:37;22.90;53.40
7494;DHT22;3788;49.902;8.590;2022-07-29T07:13:05;23.00;53.40
7494;DHT22;3788;49.902;8.590;2022-07-29T07:15:32;23.10;53.40
7494;DHT22;3788;49.902;8.590;2022-07-29T07:18:00;23.20;53.40
7494;DHT22;3788;49.902;8.590;2022-07-29T07:20:27;23.30;53.40
7494;DHT22;3788;49.902;8.590;2022-07-29T07:22:54;23.40;53.20
7494;DHT22;3788;49.902;8.590;2022-07-29T07:25:21;23.60;53.30
7494;DHT22;3788;49.902;8.590;2022-07-29T07:27:47;23.70;53.30
7494;DHT22;3788;49.902;8.590;2022-07-29T07:30:14;23.80;53.10
7494;DHT22;3788;49.902;8.590;2022-07-29T07:32:41;24.00;53.00
7494;DHT22;3788;49.902;8.590;2022-07-29T07:35:10;24.10;52.70
7494;DHT22;3788;49.902;8.590;2022-07-29T07:37:42;24.30;53.40
7494;DHT22;3788;49.902;8.590;2022-07-29T07:40:11;24.40;52.70
7494;DHT22;3788;49.902;8.590;2022-07-29T07:42:39;24.60;52.60
7494;DHT22;3788;49.902;8.590;2022-07-29T07:45:07;24.70;52.60
7494;DHT22;3788;49.902;8.590;2022-07-29T07:47:35;24.80;52.70
7494;DHT22;3788;49.902;8.590;2022-07-29T07:50:03;24.90;52.50
7494;DHT22;3788;49.902;8.590;2022-07-29T07:52:31;25.00;52.50
7494;DHT22;3788;49.902;8.590;2022-07-29T07:54:58;25.10;52.70
7494;DHT22;3788;49.902;8.590;2022-07-29T07:57:25;25.50;53.10
7494;DHT22;3788;49.902;8.590;2022-07-29T07:59:52;26.50;52.90
7494;DHT22;3788;49.902;8.590;2022-07-29T08:02:18;27.70;51.70
7494;DHT22;3788;49.902;8.590;2022-07-29T08:04:45;29.00;50.50
7494;DHT22;3788;49.902;8.590;2022-07-29T08:07:12;30.10;49.60
7494;DHT22;3788;49.902;8.590;2022-07-29T08:09:41;30.70;48.60
7494;DHT22;3788;49.902;8.590;2022-07-29T08:12:08;31.00;48.00
7494;DHT22;3788;49.902;8.590;2022-07-29T08:14:34;31.50;47.70
7494;DHT22;3788;49.902;8.590;2022-07-29T08:17:01;32.10;47.40
7494;DHT22;3788;49.902;8.590;2022-07-29T08:19:28;32.60;47.20
7494;DHT22;3788;49.902;8.590;2022-07-29T08:21:55;33.00;46.70
7494;DHT22;3788;49.902;8.590;2022-07-29T08:24:22;32.90;46.20
7494;DHT22;3788;49.902;8.590;2022-07-29T08:27:07;32.60;45.50
7494;DHT22;3788;49.902;8.590;2022-07-29T08:29:35;32.60;45.10
7494;DHT22;3788;49.902;8.590;2022-07-29T08:32:01;32.70;44.60
7494;DHT22;3788;49.902;8.590;2022-07-29T08:34:28;32.90;44.20
7494;DHT22;3788;49.902;8.590;2022-07-29T08:36:55;33.10;44.30
7494;DHT22;3788;49.902;8.590;2022-07-29T08:39:22;33.30;43.30
7494;DHT22;3788;49.902;8.590;2022-07-29T08:41:50;33.20;43.20
7494;DHT22;3788;49.902;8.590;2022-07-29T08:44:19;33.10;43.20
7494;DHT22;3788;49.902;8.590;2022-07-29T08:46:48;33.20;43.40
7494;DHT22;3788;49.902;8.590;2022-07-29T08:49:15;33.30;43.40
7494;DHT22;3788;49.902;8.590;2022-07-29T08:51:43;33.20;44.30
7494;DHT22;3788;49.902;8.590;2022-07-29T08:54:11;32.70;44.90
7494;DHT22;3788;49.902;8.590;2022-07-29T08:56:41;32.10;45.80
7494;DHT22;3788;49.902;8.590;2022-07-29T08:59:08;31.90;46.50
7494;DHT22;3788;49.902;8.590;2022-07-29T09:01:38;32.20;46.40
7494;DHT22;3788;49.902;8.590;2022-07-29T09:04:08;32.50;46.10
7494;DHT22;3788;49.902;8.590;2022-07-29T09:06:37;32.20;46.40
7494;DHT22;3788;49.902;8.590;2022-07-29T09:09:07;31.80;47.20
7494;DHT22;3788;49.902;8.590;2022-07-29T09:11:34;31.60;47.70
7494;DHT22;3788;49.902;8.590;2022-07-29T09:14:01;31.90;47.10
7494;DHT22;3788;49.902;8.590;2022-07-29T09:16:44;32.10;46.70
7494;DHT22;3788;49.902;8.590;2022-07-29T09:19:20;32.30;46.50
7494;DHT22;3788;49.902;8.590;2022-07-29T09:21:47;32.20;46.50
7494;DHT22;3788;49.902;8.590;2022-07-29T09:24:40;31.60;46.90
7494;DHT22;3788;49.902;8.590;2022-07-29T09:27:18;31.60;47.30
7494;DHT22;3788;49.902;8.590;2022-07-29T09:29:46;31.70;47.30
7494;DHT22;3788;49.902;8.590;2022-07-29T09:32:14;31.80;47.70
7494;DHT22;3788;49.902;8.590;2022-07-29T09:34:41;32.10;47.40
7494;DHT22;3788;49.902;8.590;2022-07-29T09:37:08;32.20;46.80
7494;DHT22;3788;49.902;8.590;2022-07-29T09:39:36;32.30;46.40
7494;DHT22;3788;49.902;8.590;2022-07-29T09:42:10;32.50;46.20
7494;DHT22;3788;49.902;8.590;2022-07-29T09:44:44;32.90;46.60
7494;DHT22;3788;49.902;8.590;2022-07-29T09:47:11;33.10;46.10
7494;DHT22;3788;49.902;8.590;2022-07-29T09:49:53;33.10;46.00
7494;DHT22;3788;49.902;8.590;2022-07-29T09:52:23;33.20;45.90
7494;DHT22;3788;49.902;8.590;2022-07-29T09:54:50;33.30;45.80
7494;DHT22;3788;49.902;8.590;2022-07-29T09:57:26;33.40;45.80
7494;DHT22;3788;49.902;8.590;2022-07-29T09:59:57;33.50;45.90
7494;DHT22;3788;49.902;8.590;2022-07-29T10:02:28;33.60;45.90
7494;DHT22;3788;49.902;8.590;2022-07-29T10:04:57;33.70;45.60
7494;DHT22;3788;49.902;8.590;2022-07-29T10:07:24;33.70;45.30
7494;DHT22;3788;49.902;8.590;2022-07-29T10:09:53;33.70;45.50
7494;DHT22;3788;49.902;8.590;2022-07-29T10:12:21;33.80;45.30
7494;DHT22;3788;49.902;8.590;2022-07-29T10:14:48;33.70;45.10
7494;DHT22;3788;49.902;8.590;2022-07-29T10:17:16;33.70;45.50
7494;DHT22;3788;49.902;8.590;2022-07-29T10:19:43;33.80;45.80
7494;DHT22;3788;49.902;8.590;2022-07-29T10:22:11;33.70;45.30
7494;DHT22;3788;49.902;8.590;2022-07-29T10:24:38;33.60;44.90
7494;DHT22;3788;49.902;8.590;2022-07-29T10:27:06;33.70;44.60
7494;DHT22;3788;49.902;8.590;2022-07-29T10:29:34;33.80;44.80
7494;DHT22;3788;49.902;8.590;2022-07-29T10:32:22;34.00;44.80
7494;DHT22;3788;49.902;8.590;2022-07-29T10:35:17;34.10;45.00
7494;DHT22;3788;49.902;8.590;2022-07-29T10:38:02;34.10;45.20
7494;DHT22;3788;49.902;8.590;2022-07-29T10:40:39;34.10;45.40
7494;DHT22;3788;49.902;8.590;2022-07-29T10:43:33;34.00;45.20
7494;DHT22;3788;49.902;8.590;2022-07-29T10:46:03;33.60;45.60
7494;DHT22;3788;49.902;8.590;2022-07-29T10:48:30;33.50;46.30
7494;DHT22;3788;49.902;8.590;2022-07-29T10:50:59;33.30;46.90
7494;DHT22;3788;49.902;8.590;2022-07-29T10:53:47;33.10;46.70
7494;DHT22;3788;49.902;8.590;2022-07-29T10:56:23;32.90;47.10
7494;DHT22;3788;49.902;8.590;2022-07-29T10:59:22;32.80;47.10
7494;DHT22;3788;49.902;8.590;2022-07-29T11:01:50;32.70;47.20
7494;DHT22;3788;49.902;8.590;2022-07-29T11:07:24;32.60;46.80
7494;DHT22;3788;49.902;8.590;2022-07-29T11:10:21;32.60;46.60
7494;DHT22;3788;49.902;8.590;2022-07-29T11:12:49;32.60;46.20
7494;DHT22;3788;49.902;8.590;2022-07-29T11:15:17;32.50;46.10
7494;DHT22;3788;49.902;8.590;2022-07-29T11:18:07;32.20;46.40
7494;DHT22;3788;49.902;8.590;2022-07-29T11:20:39;32.00;46.80
7494;DHT22;3788;49.902;8.590;2022-07-29T11:23:28;32.00;46.90
7494;DHT22;3788;49.902;8.590;2022-07-29T11:26:15;32.00;47.30
7494;DHT22;3788;49.902;8.590;2022-07-29T11:28:58;32.00;47.30
7494;DHT22;3788;49.902;8.590;2022-07-29T11:31:34;32.00;46.80
7494;DHT22;3788;49.902;8.590;2022-07-29T11:34:18;32.10;47.20
7494;DHT22;3788;49.902;8.590;2022-07-29T11:37:13;32.00;47.50
7494;DHT22;3788;49.902;8.590;2022-07-29T11:39:42;32.00;47.80
7494;DHT22;3788;49.902;8.590;2022-07-29T11:42:38;31.80;47.50
7494;DHT22;3788;49.902;8.590;2022-07-29T11:45:07;31.70;47.90
7494;DHT22;3788;49.902;8.590;2022-07-29T11:47:36;31.60;47.50
7494;DHT22;3788;49.902;8.590;2022-07-29T11:50:05;31.50;47.40
7494;DHT22;3788;49.902;8.590;2022-07-29T11:52:33;31.40;47.60
7494;DHT22;3788;49.902;8.590;2022-07-29T11:55:05;31.30;47.60
7494;DHT22;3788;49.902;8.590;2022-07-29T11:57:34;31.30;47.90
7494;DHT22;3788;49.902;8.590;2022-07-29T12:00:04;31.10;47.90
7494;DHT22;3788;49.902;8.590;2022-07-29T12:02:39;30.90;48.10
7494;DHT22;3788;49.902;8.590;2022-07-29T12:05:08;30.70;48.50
7494;DHT22;3788;49.902;8.590;2022-07-29T12:07:35;30.70;48.90
7494;DHT22;3788;49.902;8.590;2022-07-29T12:10:04;30.80;49.50
7494;DHT22;3788;49.902;8.590;2022-07-29T12:12:31;30.70;49.50
7494;DHT22;3788;49.902;8.590;2022-07-29T12:14:58;30.60;49.50
7494;DHT22;3788;49.902;8.590;2022-07-29T12:17:36;30.50;49.60
7494;DHT22;3788;49.902;8.590;2022-07-29T12:20:05;30.40;50.50
7494;DHT22;3788;49.902;8.590;2022-07-29T12:22:34;30.40;49.80
7494;DHT22;3788;49.902;8.590;2022-07-29T12:25:05;30.50;49.80
7494;DHT22;3788;49.902;8.590;2022-07-29T12:27:32;30.40;49.60
7494;DHT22;3788;49.902;8.590;2022-07-29T12:30:00;30.40;49.40
7494;DHT22;3788;49.902;8.590;2022-07-29T12:32:32;30.30;49.60
7494;DHT22;3788;49.902;8.590;2022-07-29T12:34:59;30.10;49.40
7494;DHT22;3788;49.902;8.590;2022-07-29T12:37:26;30.10;49.70
7494;DHT22;3788;49.902;8.590;2022-07-29T12:39:53;30.10;49.70
7494;DHT22;3788;49.902;8.590;2022-07-29T12:42:21;30.10;49.80
7494;DHT22;3788;49.902;8.590;2022-07-29T12:44:49;30.00;50.10
7494;DHT22;3788;49.902;8.590;2022-07-29T12:47:17;30.00;50.30
7494;DHT22;3788;49.902;8.590;2022-07-29T12:49:44;30.00;50.50
7494;DHT22;3788;49.902;8.590;2022-07-29T12:52:24;30.20;50.40
7494;DHT22;3788;49.902;8.590;2022-07-29T12:54:51;30.30;50.30
7494;DHT22;3788;49.902;8.590;2022-07-29T12:57:18;30.40;50.40
7494;DHT22;3788;49.902;8.590;2022-07-29T13:00:05;30.40;50.20
7494;DHT22;3788;49.902;8.590;2022-07-29T13:02:33;30.40;50.10
7494;DHT22;3788;49.902;8.590;2022-07-29T13:05:01;30.40;50.20
7494;DHT22;3788;49.902;8.590;2022-07-29T13:07:30;30.50;50.00
7494;DHT22;3788;49.902;8.590;2022-07-29T13:10:10;30.40;49.90
7494;DHT22;3788;49.902;8.590;2022-07-29T13:12:37;30.50;48.80
7494;DHT22;3788;49.902;8.590;2022-07-29T13:15:14;30.60;48.50
7494;DHT22;3788;49.902;8.590;2022-07-29T13:17:42;30.70;47.80
7494;DHT22;3788;49.902;8.590;2022-07-29T13:20:11;30.80;47.70
7494;DHT22;3788;49.902;8.590;2022-07-29T13:22:40;30.90;47.60
7494;DHT22;3788;49.902;8.590;2022-07-29T13:25:09;30.90;47.80
7494;DHT22;3788;49.902;8.590;2022-07-29T13:27:38;31.00;48.00
7494;DHT22;3788;49.902;8.590;2022-07-29T13:30:06;30.90;47.90
7494;DHT22;3788;49.902;8.590;2022-07-29T13:32:36;30.90;47.90
7494;DHT22;3788;49.902;8.590;2022-07-29T13:35:05;31.00;47.80
7494;DHT22;3788;49.902;8.590;2022-07-29T13:37:32;31.00;48.00
7494;DHT22;3788;49.902;8.590;2022-07-29T13:40:00;31.00;48.10
7494;DHT22;3788;49.902;8.590;2022-07-29T13:42:28;31.00;47.60
7494;DHT22;3788;49.902;8.590;2022-07-29T13:44:55;31.00;47.80
7494;DHT22;3788;49.902;8.590;2022-07-29T13:47:22;30.90;47.50
7494;DHT22;3788;49.902;8.590;2022-07-29T13:49:50;30.80;47.80
7494;DHT22;3788;49.902;8.590;2022-07-29T13:52:18;30.60;48.10
7494;DHT22;3788;49.902;8.590;2022-07-29T13:54:45;30.60;48.80
7494;DHT22;3788;49.902;8.590;2022-07-29T13:57:12;30.70;49.10
7494;DHT22;3788;49.902;8.590;2022-07-29T13:59:40;30.70;49.00
7494;DHT22;3788;49.902;8.590;2022-07-29T14:02:07;30.80;49.00
7494;DHT22;3788;49.902;8.590;2022-07-29T14:04:34;30.80;48.80
7494;DHT22;3788;49.902;8.590;2022-07-29T14:07:02;30.80;47.90
7494;DHT22;3788;49.902;8.590;2022-07-29T14:09:29;30.80;47.70
7494;DHT22;3788;49.902;8.590;2022-07-29T14:11:56;30.70;47.30
7494;DHT22;3788;49.902;8.590;2022-07-29T14:14:22;30.70;46.60
7494;DHT22;3788;49.902;8.590;2022-07-29T14:16:49;30.70;46.50
7494;DHT22;3788;49.902;8.590;2022-07-29T14:19:16;30.70;46.40
7494;DHT22;3788;49.902;8.590;2022-07-29T14:21:52;30.60;46.80
7494;DHT22;3788;49.902;8.590;2022-07-29T14:24:20;30.50;47.20
7494;DHT22;3788;49.902;8.590;2022-07-29T14:26:47;30.40;47.70
7494;DHT22;3788;49.902;8.590;2022-07-29T14:29:13;30.30;48.10
7494;DHT22;3788;49.902;8.590;2022-07-29T14:31:40;30.10;48.10
7494;DHT22;3788;49.902;8.590;2022-07-29T14:34:08;30.10;48.70
7494;DHT22;3788;49.902;8.590;2022-07-29T14:36:35;30.00;49.00
7494;DHT22;3788;49.902;8.590;2022-07-29T14:39:01;30.00;49.60
7494;DHT22;3788;49.902;8.590;2022-07-29T14:41:29;29.90;49.80
7494;DHT22;3788;49.902;8.590;2022-07-29T14:43:56;29.90;50.00
7494;DHT22;3788;49.902;8.590;2022-07-29T14:46:23;29.90;50.10
7494;DHT22;3788;49.902;8.590;2022-07-29T14:48:49;29.90;50.10
7494;DHT22;3788;49.902;8.590;2022-07-29T14:51:16;29.80;50.30
7494;DHT22;3788;49.902;8.590;2022-07-29T14:53:43;29.80;50.20
7494;DHT22;3788;49.902;8.590;2022-07-29T14:56:10;29.80;50.20
7494;DHT22;3788;49.902;8.590;2022-07-29T14:58:38;29.80;50.00
7494;DHT22;3788;49.902;8.590;2022-07-29T15:01:05;29.80;50.10
7494;DHT22;3788;49.902;8.590;2022-07-29T15:03:32;29.90;50.30
7494;DHT22;3788;49.902;8.590;2022-07-29T15:05:58;29.90;50.20
7494;DHT22;3788;49.902;8.590;2022-07-29T15:08:25;29.80;50.20
7494;DHT22;3788;49.902;8.590;2022-07-29T15:10:55;29.70;50.50
7494;DHT22;3788;49.902;8.590;2022-07-29T15:13:23;29.60;51.10
7494;DHT22;3788;49.902;8.590;2022-07-29T15:15:51;29.40;51.40
7494;DHT22;3788;49.902;8.590;2022-07-29T15:18:17;29.30;51.60
7494;DHT22;3788;49.902;8.590;2022-07-29T15:20:44;29.20;51.80
7494;DHT22;3788;49.902;8.590;2022-07-29T15:23:12;29.10;52.20
7494;DHT22;3788;49.902;8.590;2022-07-29T15:25:39;29.10;52.60
7494;DHT22;3788;49.902;8.590;2022-07-29T15:28:05;29.10;52.70
7494;DHT22;3788;49.902;8.590;2022-07-29T15:30:34;29.10;53.10
7494;DHT22;3788;49.902;8.590;2022-07-29T15:33:07;29.10;52.20
7494;DHT22;3788;49.902;8.590;2022-07-29T15:35:34;29.00;52.00
7494;DHT22;3788;49.902;8.590;2022-07-29T15:38:01;29.00;51.90
7494;DHT22;3788;49.902;8.590;2022-07-29T15:40:28;29.00;51.60
7494;DHT22;3788;49.902;8.590;2022-07-29T15:42:55;28.90;51.30
7494;DHT22;3788;49.902;8.590;2022-07-29T15:45:22;28.90;51.40
7494;DHT22;3788;49.902;8.590;2022-07-29T15:47:49;28.80;51.40
7494;DHT22;3788;49.902;8.590;2022-07-29T15:50:17;28.80;51.30
7494;DHT22;3788;49.902;8.590;2022-07-29T15:52:44;28.80;51.20
7494;DHT22;3788;49.902;8.590;2022-07-29T15:55:11;28.80;51.20
7494;DHT22;3788;49.902;8.590;2022-07-29T15:57:39;28.70;51.00
7494;DHT22;3788;49.902;8.590;2022-07-29T16:00:08;28.70;50.90
7494;DHT22;3788;49.902;8.590;2022-07-29T16:02:34;28.70;50.90
7494;DHT22;3788;49.902;8.590;2022-07-29T16:05:01;28.70;50.80
7494;DHT22;3788;49.902;8.590;2022-07-29T16:07:29;28.70;50.80
7494;DHT22;3788;49.902;8.590;2022-07-29T16:09:56;28.70;51.00
7494;DHT22;3788;49.902;8.590;2022-07-29T16:12:22;28.70;51.10
7494;DHT22;3788;49.902;8.590;2022-07-29T16:14:49;28.60;50.70
7494;DHT22;3788;49.902;8.590;2022-07-29T16:17:17;28.60;50.10
7494;DHT22;3788;49.902;8.590;2022-07-29T16:19:44;28.60;50.60